sensor_id;sensor_type;location;lat;lon;timestamp;temperature;humidity
69204;DHT22;56317;27.658;85.326;2024-02-16T00:01:18;5.00;99.90
69204;DHT22;56317;27.658;85.326;2024-02-16T00:03:45;4.90;99.80
69204;DHT22;56317;27.658;85.326;2024-02-16T00:06:13;5.00;99.90
69204;DHT22;56317;27.658;85.326;2024-02-16T00:08:40;5.00;99.90
69204;DHT22;56317;27.658;85.326;2024-02-16T00:11:08;5.00;99.90
69204;DHT22;56317;27.658;85.326;2024-02-16T00:13:36;5.00;99.90
69204;DHT22;56317;27.658;85.326;2024-02-16T00:16:04;5.10;99.90
69204;DHT22;56317;27.658;85.326;2024-02-16T00:18:31;5.10;99.90
69204;DHT22;56317;27.658;85.326;2024-02-16T00:20:58;5.10;99.90
69204;DHT22;56317;27.658;85.326;2024-02-16T00:23:25;5.10;99.90
69204;DHT22;56317;27.658;85.326;2024-02-16T00:25:52;5.00;99.90
69204;DHT22;56317;27.658;85.326;2024-02-16T00:28:19;5.10;99.90
69204;DHT22;56317;27.658;85.326;2024-02-16T00:30:47;5.10;99.90
69204;DHT22;56317;27.658;85.326;2024-02-16T00:33:15;5.10;99.90
69204;DHT22;56317;27.658;85.326;2024-02-16T00:35:44;5.10;99.90
69204;DHT22;56317;27.658;85.326;2024-02-16T00:38:14;4.90;98.90
69204;DHT22;56317;27.658;85.326;2024-02-16T00:40:41;4.90;99.20
69204;DHT22;56317;27.658;85.326;2024-02-16T00:43:10;5.00;99.90
69204;DHT22;56317;27.658;85.326;2024-02-16T00:45:37;5.00;99.90
69204;DHT22;56317;27.658;85.326;2024-02-16T00:48:05;5.00;99.90
69204;DHT22;56317;27.658;85.326;2024-02-16T00:50:33;5.00;99.90
69204;DHT22;56317;27.658;85.326;2024-02-16T00:53:01;5.00;99.90
69204;DHT22;56317;27.658;85.326;2024-02-16T00:55:28;5.00;99.90
69204;DHT22;56317;27.658;85.326;2024-02-16T00:57:56;5.00;99.70
69204;DHT22;56317;27.658;85.326;2024-02-16T01:00:24;5.00;99.60
69204;DHT22;56317;27.658;85.326;2024-02-16T01:02:51;5.00;99.90
69204;DHT22;56317;27.658;85.326;2024-02-16T01:05:21;5.10;99.90
69204;DHT22;56317;27.658;85.326;2024-02-16T01:07:49;5.10;99.90
69204;DHT22;56317;27.658;85.326;2024-02-16T01:10:16;5.10;99.90
69204;DHT22;56317;27.658;85.326;2024-02-16T01:12:43;5.20;99.90
69204;DHT22;56317;27.658;85.326;2024-02-16T01:15:11;5.10;99.60
69204;DHT22;56317;27.658;85.326;2024-02-16T01:17:38;5.30;99.90
69204;DHT22;56317;27.658;85.326;2024-02-16T01:20:06;5.30;99.80
69204;DHT22;56317;27.658;85.326;2024-02-16T01:22:36;5.30;99.80
69204;DHT22;56317;27.658;85.326;2024-02-16T01:25:04;5.30;98.30
69204;DHT22;56317;27.658;85.326;2024-02-16T01:27:31;5.40;99.30
69204;DHT22;56317;27.658;85.326;2024-02-16T01:29:58;5.40;99.60
69204;DHT22;56317;27.658;85.326;2024-02-16T01:32:27;5.60;99.90
69204;DHT22;56317;27.658;85.326;2024-02-16T01:34:56;5.70;99.90
69204;DHT22;56317;27.658;85.326;2024-02-16T01:37:24;5.90;99.90
69204;DHT22;56317;27.658;85.326;2024-02-16T01:39:51;6.10;99.90
69204;DHT22;56317;27.658;85.326;2024-02-16T01:42:19;6.30;98.40
69204;DHT22;56317;27.658;85.326;2024-02-16T01:44:46;6.40;96.90
69204;DHT22;56317;27.658;85.326;2024-02-16T01:47:13;6.50;96.50
69204;DHT22;56317;27.658;85.326;2024-02-16T01:49:40;6.70;94.80
69204;DHT22;56317;27.658;85.326;2024-02-16T01:52:08;6.80;92.00
69204;DHT22;56317;27.658;85.326;2024-02-16T01:54:35;7.00;86.10
69204;DHT22;56317;27.658;85.326;2024-02-16T01:57:03;7.10;81.10
69204;DHT22;56317;27.658;85.326;2024-02-16T01:59:32;7.30;85.60
69204;DHT22;56317;27.658;85.326;2024-02-16T02:02:00;7.40;85.60
69204;DHT22;56317;27.658;85.326;2024-02-16T02:04:27;7.60;85.50
69204;DHT22;56317;27.658;85.326;2024-02-16T02:06:55;7.70;78.90
69204;DHT22;56317;27.658;85.326;2024-02-16T02:09:22;7.90;71.00
69204;DHT22;56317;27.658;85.326;2024-02-16T02:11:49;8.20;58.70
69204;DHT22;56317;27.658;85.326;2024-02-16T02:14:16;8.30;63.00
69204;DHT22;56317;27.658;85.326;2024-02-16T02:16:43;8.50;60.00
69204;DHT22;56317;27.658;85.326;2024-02-16T02:19:10;8.80;62.70
69204;DHT22;56317;27.658;85.326;2024-02-16T02:21:37;8.90;52.70
69204;DHT22;56317;27.658;85.326;2024-02-16T02:24:05;9.20;32.00
69204;DHT22;56317;27.658;85.326;2024-02-16T02:26:32;9.40;2.20
69204;DHT22;56317;27.658;85.326;2024-02-16T02:28:59;9.60;1.00
69204;DHT22;56317;27.658;85.326;2024-02-16T02:31:26;9.70;1.00
69204;DHT22;56317;27.658;85.326;2024-02-16T02:33:54;9.90;1.00
69204;DHT22;56317;27.658;85.326;2024-02-16T02:36:21;10.10;1.00
69204;DHT22;56317;27.658;85.326;2024-02-16T02:38:48;10.20;1.00
69204;DHT22;56317;27.658;85.326;2024-02-16T02:41:16;10.40;1.00
69204;DHT22;56317;27.658;85.326;2024-02-16T02:43:46;10.50;1.00
69204;DHT22;56317;27.658;85.326;2024-02-16T02:46:16;10.60;99.90
69204;DHT22;56317;27.658;85.326;2024-02-16T02:48:44;10.90;99.90
69204;DHT22;56317;27.658;85.326;2024-02-16T02:51:11;11.10;99.90
69204;DHT22;56317;27.658;85.326;2024-02-16T02:53:38;11.40;99.90
69204;DHT22;56317;27.658;85.326;2024-02-16T02:56:06;11.70;99.90
69204;DHT22;56317;27.658;85.326;2024-02-16T02:58:34;11.80;1.00
69204;DHT22;56317;27.658;85.326;2024-02-16T03:01:01;12.10;99.90
69204;DHT22;56317;27.658;85.326;2024-02-16T03:03:34;12.30;99.90
69204;DHT22;56317;27.658;85.326;2024-02-16T03:06:01;12.50;1.00
69204;DHT22;56317;27.658;85.326;2024-02-16T03:08:29;12.80;99.90
69204;DHT22;56317;27.658;85.326;2024-02-16T03:10:56;12.70;99.90
69204;DHT22;56317;27.658;85.326;2024-02-16T03:13:27;12.60;1.00
69204;DHT22;56317;27.658;85.326;2024-02-16T03:15:54;12.70;99.90
69204;DHT22;56317;27.658;85.326;2024-02-16T03:18:22;13.00;99.90
69204;DHT22;56317;27.658;85.326;2024-02-16T03:20:49;12.90;1.00
69204;DHT22;56317;27.658;85.326;2024-02-16T03:23:17;13.10;99.90
69204;DHT22;56317;27.658;85.326;2024-02-16T03:25:44;13.30;1.00
69204;DHT22;56317;27.658;85.326;2024-02-16T03:28:14;13.60;1.00
69204;DHT22;56317;27.658;85.326;2024-02-16T03:30:43;13.80;99.90
69204;DHT22;56317;27.658;85.326;2024-02-16T03:33:10;14.20;55.40
69204;DHT22;56317;27.658;85.326;2024-02-16T03:35:38;14.40;99.90
69204;DHT22;56317;27.658;85.326;2024-02-16T03:38:11;14.80;99.90
69204;DHT22;56317;27.658;85.326;2024-02-16T03:40:40;15.20;2.70
69204;DHT22;56317;27.658;85.326;2024-02-16T03:43:07;15.50;1.00
69204;DHT22;56317;27.658;85.326;2024-02-16T03:45:46;15.80;99.90
69204;DHT22;56317;27.658;85.326;2024-02-16T03:48:17;15.90;99.90
69204;DHT22;56317;27.658;85.326;2024-02-16T03:50:44;16.40;99.90
69204;DHT22;56317;27.658;85.326;2024-02-16T03:53:11;16.70;99.90
69204;DHT22;56317;27.658;85.326;2024-02-16T03:55:39;16.60;82.90
69204;DHT22;56317;27.658;85.326;2024-02-16T03:58:06;16.50;56.10
69204;DHT22;56317;27.658;85.326;2024-02-16T04:00:33;16.30;44.30
69204;DHT22;56317;27.658;85.326;2024-02-16T04:03:00;16.50;8.80
69204;DHT22;56317;27.658;85.326;2024-02-16T04:05:28;16.70;3.10
69204;DHT22;56317;27.658;85.326;2024-02-16T04:08:25;16.90;1.00
69204;DHT22;56317;27.658;85.326;2024-02-16T04:10:52;17.20;1.00
69204;DHT22;56317;27.658;85.326;2024-02-16T04:13:19;17.60;1.00
69204;DHT22;56317;27.658;85.326;2024-02-16T04:15:47;18.10;1.00
69204;DHT22;56317;27.658;85.326;2024-02-16T04:18:14;18.90;1.00
69204;DHT22;56317;27.658;85.326;2024-02-16T04:20:42;19.30;1.00
69204;DHT22;56317;27.658;85.326;2024-02-16T04:23:09;20.00;1.00
69204;DHT22;56317;27.658;85.326;2024-02-16T04:25:37;20.30;1.00
69204;DHT22;56317;27.658;85.326;2024-02-16T04:28:05;20.50;1.00
69204;DHT22;56317;27.658;85.326;2024-02-16T04:30:32;20.60;1.00
69204;DHT22;56317;27.658;85.326;2024-02-16T04:33:00;21.20;1.00
69204;DHT22;56317;27.658;85.326;2024-02-16T04:35:29;23.80;99.90
69204;DHT22;56317;27.658;85.326;2024-02-16T04:37:56;25.80;99.90
69204;DHT22;56317;27.658;85.326;2024-02-16T04:40:23;27.50;99.90
69204;DHT22;56317;27.658;85.326;2024-02-16T04:42:50;29.00;99.90
69204;DHT22;56317;27.658;85.326;2024-02-16T04:45:18;29.90;99.90
69204;DHT22;56317;27.658;85.326;2024-02-16T04:47:46;30.50;99.90
69204;DHT22;56317;27.658;85.326;2024-02-16T04:50:13;31.20;99.90
69204;DHT22;56317;27.658;85.326;2024-02-16T04:52:40;32.00;99.90
69204;DHT22;56317;27.658;85.326;2024-02-16T04:55:10;32.70;99.90
69204;DHT22;56317;27.658;85.326;2024-02-16T04:57:37;33.30;99.90
69204;DHT22;56317;27.658;85.326;2024-02-16T05:00:05;33.80;99.90
69204;DHT22;56317;27.658;85.326;2024-02-16T05:02:32;33.70;99.90
69204;DHT22;56317;27.658;85.326;2024-02-16T05:04:59;34.10;99.90
69204;DHT22;56317;27.658;85.326;2024-02-16T05:07:26;35.20;99.90
69204;DHT22;56317;27.658;85.326;2024-02-16T05:09:53;35.40;99.90
69204;DHT22;56317;27.658;85.326;2024-02-16T05:12:25;36.40;99.90
69204;DHT22;56317;27.658;85.326;2024-02-16T05:14:52;37.10;99.90
69204;DHT22;56317;27.658;85.326;2024-02-16T05:17:20;38.00;99.90
69204;DHT22;56317;27.658;85.326;2024-02-16T05:19:49;38.30;99.90
69204;DHT22;56317;27.658;85.326;2024-02-16T05:22:19;38.60;99.90
69204;DHT22;56317;27.658;85.326;2024-02-16T05:24:49;39.10;99.90
69204;DHT22;56317;27.658;85.326;2024-02-16T05:27:16;40.20;99.90
69204;DHT22;56317;27.658;85.326;2024-02-16T05:29:44;40.60;99.90
69204;DHT22;56317;27.658;85.326;2024-02-16T05:32:12;40.40;99.90
69204;DHT22;56317;27.658;85.326;2024-02-16T05:34:39;40.80;99.90
69204;DHT22;56317;27.658;85.326;2024-02-16T05:37:07;41.00;99.90
69204;DHT22;56317;27.658;85.326;2024-02-16T05:39:36;40.90;99.90
69204;DHT22;56317;27.658;85.326;2024-02-16T05:42:21;41.20;99.90
69204;DHT22;56317;27.658;85.326;2024-02-16T05:44:48;42.40;99.90
69204;DHT22;56317;27.658;85.326;2024-02-16T05:47:16;43.30;99.90
69204;DHT22;56317;27.658;85.326;2024-02-16T05:49:46;43.10;99.90
69204;DHT22;56317;27.658;85.326;2024-02-16T05:52:13;41.60;99.90
69204;DHT22;56317;27.658;85.326;2024-02-16T05:54:47;42.70;99.90
69204;DHT22;56317;27.658;85.326;2024-02-16T05:57:16;43.10;99.90
69204;DHT22;56317;27.658;85.326;2024-02-16T05:59:44;44.30;99.90
69204;DHT22;56317;27.658;85.326;2024-02-16T06:02:12;44.90;99.90
69204;DHT22;56317;27.658;85.326;2024-02-16T06:04:41;45.10;99.90
69204;DHT22;56317;27.658;85.326;2024-02-16T06:07:08;45.00;99.90
69204;DHT22;56317;27.658;85.326;2024-02-16T06:09:36;45.60;99.90
69204;DHT22;56317;27.658;85.326;2024-02-16T06:12:04;46.10;99.90
69204;DHT22;56317;27.658;85.326;2024-02-16T06:14:34;46.20;99.90
69204;DHT22;56317;27.658;85.326;2024-02-16T06:17:04;45.80;99.90
69204;DHT22;56317;27.658;85.326;2024-02-16T06:19:31;45.60;99.90
69204;DHT22;56317;27.658;85.326;2024-02-16T06:21:58;45.50;99.90
69204;DHT22;56317;27.658;85.326;2024-02-16T06:24:26;46.60;99.90
69204;DHT22;56317;27.658;85.326;2024-02-16T06:26:54;47.30;99.90
69204;DHT22;56317;27.658;85.326;2024-02-16T06:29:21;47.60;99.90
69204;DHT22;56317;27.658;85.326;2024-02-16T06:31:48;48.50;99.90
69204;DHT22;56317;27.658;85.326;2024-02-16T06:34:16;49.30;99.90
69204;DHT22;56317;27.658;85.326;2024-02-16T06:36:43;49.40;99.90
69204;DHT22;56317;27.658;85.326;2024-02-16T06:39:11;48.40;99.90
69204;DHT22;56317;27.658;85.326;2024-02-16T06:41:45;46.00;99.90
69204;DHT22;56317;27.658;85.326;2024-02-16T06:44:16;43.90;99.90
69204;DHT22;56317;27.658;85.326;2024-02-16T06:46:43;46.50;99.90
69204;DHT22;56317;27.658;85.326;2024-02-16T06:49:10;48.50;99.90
69204;DHT22;56317;27.658;85.326;2024-02-16T06:51:38;49.40;99.90
69204;DHT22;56317;27.658;85.326;2024-02-16T06:54:05;50.00;99.90
69204;DHT22;56317;27.658;85.326;2024-02-16T06:56:39;50.70;99.90
69204;DHT22;56317;27.658;85.326;2024-02-16T06:59:06;50.70;99.90
69204;DHT22;56317;27.658;85.326;2024-02-16T07:01:33;51.30;99.90
69204;DHT22;56317;27.658;85.326;2024-02-16T07:04:00;52.10;99.90
69204;DHT22;56317;27.658;85.326;2024-02-16T07:06:28;51.90;99.90
69204;DHT22;56317;27.658;85.326;2024-02-16T07:08:55;52.20;99.90
69204;DHT22;56317;27.658;85.326;2024-02-16T07:11:22;52.20;99.90
69204;DHT22;56317;27.658;85.326;2024-02-16T07:13:50;52.30;99.90
69204;DHT22;56317;27.658;85.326;2024-02-16T07:16:17;52.00;99.90
69204;DHT22;56317;27.658;85.326;2024-02-16T07:18:47;50.30;99.90
69204;DHT22;56317;27.658;85.326;2024-02-16T07:21:15;48.80;99.90
69204;DHT22;56317;27.658;85.326;2024-02-16T07:23:47;49.10;99.90
69204;DHT22;56317;27.658;85.326;2024-02-16T07:26:17;50.00;99.90
69204;DHT22;56317;27.658;85.326;2024-02-16T07:28:44;51.10;99.90
69204;DHT22;56317;27.658;85.326;2024-02-16T07:31:12;51.20;99.90
69204;DHT22;56317;27.658;85.326;2024-02-16T07:33:41;51.30;99.90
69204;DHT22;56317;27.658;85.326;2024-02-16T07:36:08;51.70;99.90
69204;DHT22;56317;27.658;85.326;2024-02-16T07:38:36;51.60;99.90
69204;DHT22;56317;27.658;85.326;2024-02-16T07:41:06;51.70;99.90
69204;DHT22;56317;27.658;85.326;2024-02-16T07:43:34;51.70;99.90
69204;DHT22;56317;27.658;85.326;2024-02-16T07:46:01;49.30;99.90
69204;DHT22;56317;27.658;85.326;2024-02-16T07:48:30;48.30;99.90
69204;DHT22;56317;27.658;85.326;2024-02-16T07:50:57;49.60;99.90
69204;DHT22;56317;27.658;85.326;2024-02-16T07:53:29;50.40;99.90
69204;DHT22;56317;27.658;85.326;2024-02-16T07:55:57;50.50;99.90
69204;DHT22;56317;27.658;85.326;2024-02-16T07:58:25;49.90;99.90
69204;DHT22;56317;27.658;85.326;2024-02-16T08:00:52;47.80;99.90
69204;DHT22;56317;27.658;85.326;2024-02-16T08:03:21;47.80;99.90
69204;DHT22;56317;27.658;85.326;2024-02-16T08:05:49;47.70;99.90
69204;DHT22;56317;27.658;85.326;2024-02-16T08:08:16;48.80;99.90
69204;DHT22;56317;27.658;85.326;2024-02-16T08:10:44;49.50;99.90
69204;DHT22;56317;27.658;85.326;2024-02-16T08:13:12;50.30;99.90
69204;DHT22;56317;27.658;85.326;2024-02-16T08:15:39;51.00;99.90
69204;DHT22;56317;27.658;85.326;2024-02-16T08:18:06;50.50;99.90
69204;DHT22;56317;27.658;85.326;2024-02-16T08:20:33;47.40;99.90
69204;DHT22;56317;27.658;85.326;2024-02-16T08:23:01;46.10;99.90
69204;DHT22;56317;27.658;85.326;2024-02-16T08:25:28;47.00;99.90
69204;DHT22;56317;27.658;85.326;2024-02-16T08:27:56;43.70;99.90
69204;DHT22;56317;27.658;85.326;2024-02-16T08:30:24;42.70;99.90
69204;DHT22;56317;27.658;85.326;2024-02-16T08:32:52;40.00;99.90
69204;DHT22;56317;27.658;85.326;2024-02-16T08:35:20;38.00;99.90
69204;DHT22;56317;27.658;85.326;2024-02-16T08:37:47;36.80;99.90
69204;DHT22;56317;27.658;85.326;2024-02-16T08:40:15;35.50;99.90
69204;DHT22;56317;27.658;85.326;2024-02-16T08:42:42;35.90;99.90
69204;DHT22;56317;27.658;85.326;2024-02-16T08:45:10;35.40;99.90
69204;DHT22;56317;27.658;85.326;2024-02-16T08:47:38;34.30;99.90
69204;DHT22;56317;27.658;85.326;2024-02-16T08:50:07;34.50;99.90
69204;DHT22;56317;27.658;85.326;2024-02-16T08:52:34;33.30;99.90
69204;DHT22;56317;27.658;85.326;2024-02-16T08:55:02;32.60;99.90
69204;DHT22;56317;27.658;85.326;2024-02-16T08:57:34;32.40;99.90
69204;DHT22;56317;27.658;85.326;2024-02-16T09:00:01;32.30;99.90
69204;DHT22;56317;27.658;85.326;2024-02-16T09:02:30;32.50;99.90
69204;DHT22;56317;27.658;85.326;2024-02-16T09:04:57;31.50;99.90
69204;DHT22;56317;27.658;85.326;2024-02-16T09:07:24;32.00;99.90
69204;DHT22;56317;27.658;85.326;2024-02-16T09:09:53;31.50;99.90
69204;DHT22;56317;27.658;85.326;2024-02-16T09:12:21;30.80;99.90
69204;DHT22;56317;27.658;85.326;2024-02-16T09:14:48;30.50;99.90
69204;DHT22;56317;27.658;85.326;2024-02-16T09:17:15;30.00;99.90
69204;DHT22;56317;27.658;85.326;2024-02-16T09:19:42;31.50;99.90
69204;DHT22;56317;27.658;85.326;2024-02-16T09:22:09;29.70;99.90
69204;DHT22;56317;27.658;85.326;2024-02-16T09:24:37;29.90;99.90
69204;DHT22;56317;27.658;85.326;2024-02-16T09:27:04;30.30;99.90
69204;DHT22;56317;27.658;85.326;2024-02-16T09:29:31;30.70;99.90
69204;DHT22;56317;27.658;85.326;2024-02-16T09:31:59;30.70;99.90
69204;DHT22;56317;27.658;85.326;2024-02-16T09:34:26;31.10;99.90
69204;DHT22;56317;27.658;85.326;2024-02-16T09:36:54;31.10;99.90
69204;DHT22;56317;27.658;85.326;2024-02-16T09:39:21;31.90;99.90
69204;DHT22;56317;27.658;85.326;2024-02-16T09:41:50;30.70;99.90
69204;DHT22;56317;27.658;85.326;2024-02-16T09:44:21;30.30;99.90
69204;DHT22;56317;27.658;85.326;2024-02-16T09:46:49;29.80;99.90
69204;DHT22;56317;27.658;85.326;2024-02-16T09:49:18;29.70;99.90
69204;DHT22;56317;27.658;85.326;2024-02-16T09:51:46;29.80;99.90
69204;DHT22;56317;27.658;85.326;2024-02-16T09:54:13;30.10;99.90
69204;DHT22;56317;27.658;85.326;2024-02-16T09:56:41;29.70;99.90
69204;DHT22;56317;27.658;85.326;2024-02-16T09:59:09;28.70;99.90
69204;DHT22;56317;27.658;85.326;2024-02-16T10:01:36;28.90;99.90
69204;DHT22;56317;27.658;85.326;2024-02-16T10:04:07;29.20;99.90
69204;DHT22;56317;27.658;85.326;2024-02-16T10:06:46;28.30;99.90
69204;DHT22;56317;27.658;85.326;2024-02-16T10:11:51;27.60;99.90
69204;DHT22;56317;27.658;85.326;2024-02-16T10:14:19;27.70;99.90
69204;DHT22;56317;27.658;85.326;2024-02-16T10:16:58;27.30;99.90
69204;DHT22;56317;27.658;85.326;2024-02-16T10:19:25;27.20;99.90
69204;DHT22;56317;27.658;85.326;2024-02-16T10:21:53;27.30;99.90
69204;DHT22;56317;27.658;85.326;2024-02-16T10:24:23;26.80;99.90
69204;DHT22;56317;27.658;85.326;2024-02-16T10:26:50;26.40;99.90
69204;DHT22;56317;27.658;85.326;2024-02-16T10:29:24;26.60;99.90
69204;DHT22;56317;27.658;85.326;2024-02-16T10:31:53;26.70;99.90
69204;DHT22;56317;27.658;85.326;2024-02-16T10:34:21;25.60;99.90
69204;DHT22;56317;27.658;85.326;2024-02-16T10:36:51;24.20;99.90
69204;DHT22;56317;27.658;85.326;2024-02-16T10:39:19;23.30;99.90
69204;DHT22;56317;27.658;85.326;2024-02-16T10:41:47;23.90;99.90
69204;DHT22;56317;27.658;85.326;2024-02-16T10:44:15;24.80;99.90
69204;DHT22;56317;27.658;85.326;2024-02-16T10:46:42;24.60;99.90
69204;DHT22;56317;27.658;85.326;2024-02-16T10:49:09;23.80;99.90
69204;DHT22;56317;27.658;85.326;2024-02-16T10:51:40;23.50;99.90
69204;DHT22;56317;27.658;85.326;2024-02-16T10:54:10;23.40;99.90
69204;DHT22;56317;27.658;85.326;2024-02-16T10:56:40;22.50;99.90
69204;DHT22;56317;27.658;85.326;2024-02-16T10:59:10;22.00;99.90
69204;DHT22;56317;27.658;85.326;2024-02-16T11:01:42;21.90;99.90
69204;DHT22;56317;27.658;85.326;2024-02-16T11:04:16;22.00;99.90
69204;DHT22;56317;27.658;85.326;2024-02-16T11:06:48;22.50;99.90
69204;DHT22;56317;27.658;85.326;2024-02-16T11:09:51;22.00;99.90
69204;DHT22;56317;27.658;85.326;2024-02-16T11:12:18;21.60;99.90
69204;DHT22;56317;27.658;85.326;2024-02-16T11:14:47;21.80;99.90
69204;DHT22;56317;27.658;85.326;2024-02-16T11:17:23;20.90;99.90
69204;DHT22;56317;27.658;85.326;2024-02-16T11:19:53;19.90;99.90
69204;DHT22;56317;27.658;85.326;2024-02-16T11:22:20;19.40;99.90
69204;DHT22;56317;27.658;85.326;2024-02-16T11:24:49;18.90;99.90
69204;DHT22;56317;27.658;85.326;2024-02-16T11:27:17;18.60;99.90
69204;DHT22;56317;27.658;85.326;2024-02-16T11:29:48;18.40;99.90
69204;DHT22;56317;27.658;85.326;2024-02-16T11:32:15;18.20;99.90
69204;DHT22;56317;27.658;85.326;2024-02-16T11:34:47;17.80;99.90
69204;DHT22;56317;27.658;85.326;2024-02-16T11:37:14;17.50;99.90
69204;DHT22;56317;27.658;85.326;2024-02-16T11:39:42;17.40;99.90
69204;DHT22;56317;27.658;85.326;2024-02-16T11:42:12;17.20;99.90
69204;DHT22;56317;27.658;85.326;2024-02-16T11:44:54;17.00;99.90
69204;DHT22;56317;27.658;85.326;2024-02-16T11:47:22;16.80;99.90
69204;DHT22;56317;27.658;85.326;2024-02-16T11:50:09;16.60;1.00
69204;DHT22;56317;27.658;85.326;2024-02-16T11:52:41;16.50;1.00
69204;DHT22;56317;27.658;85.326;2024-02-16T11:55:09;16.40;9.80
69204;DHT22;56317;27.658;85.326;2024-02-16T11:57:38;16.30;96.00
69204;DHT22;56317;27.658;85.326;2024-02-16T12:00:06;16.10;99.90
69204;DHT22;56317;27.658;85.326;2024-02-16T12:02:41;16.00;99.90
69204;DHT22;56317;27.658;85.326;2024-02-16T12:05:08;15.90;1.00
69204;DHT22;56317;27.658;85.326;2024-02-16T12:07:38;15.80;99.90
69204;DHT22;56317;27.658;85.326;2024-02-16T12:10:09;15.70;99.90
69204;DHT22;56317;27.658;85.326;2024-02-16T12:12:37;15.70;99.90
69204;DHT22;56317;27.658;85.326;2024-02-16T12:15:05;15.50;1.00
69204;DHT22;56317;27.658;85.326;2024-02-16T12:17:34;15.40;99.90
69204;DHT22;56317;27.658;85.326;2024-02-16T12:20:01;15.40;99.90
69204;DHT22;56317;27.658;85.326;2024-02-16T12:22:28;15.30;1.00
69204;DHT22;56317;27.658;85.326;2024-02-16T12:24:56;15.20;1.00
69204;DHT22;56317;27.658;85.326;2024-02-16T12:27:23;15.10;99.90
69204;DHT22;56317;27.658;85.326;2024-02-16T12:29:50;15.00;99.90
69204;DHT22;56317;27.658;85.326;2024-02-16T12:32:17;15.00;97.30
69204;DHT22;56317;27.658;85.326;2024-02-16T12:34:46;14.90;99.90
69204;DHT22;56317;27.658;85.326;2024-02-16T12:37:13;14.90;1.00
69204;DHT22;56317;27.658;85.326;2024-02-16T12:39:40;14.80;1.00
69204;DHT22;56317;27.658;85.326;2024-02-16T12:42:07;14.70;95.30
69204;DHT22;56317;27.658;85.326;2024-02-16T12:44:35;14.60;1.00
69204;DHT22;56317;27.658;85.326;2024-02-16T12:47:02;14.80;99.90
69204;DHT22;56317;27.658;85.326;2024-02-16T12:49:29;14.90;99.90
69204;DHT22;56317;27.658;85.326;2024-02-16T12:51:56;14.80;1.00
69204;DHT22;56317;27.658;85.326;2024-02-16T12:54:23;14.70;1.00
69204;DHT22;56317;27.658;85.326;2024-02-16T12:56:51;14.70;1.00
69204;DHT22;56317;27.658;85.326;2024-02-16T12:59:19;14.60;99.90
69204;DHT22;56317;27.658;85.326;2024-02-16T13:01:46;14.60;1.00
69204;DHT22;56317;27.658;85.326;2024-02-16T13:04:13;14.50;99.90
69204;DHT22;56317;27.658;85.326;2024-02-16T13:06:48;14.40;99.90
69204;DHT22;56317;27.658;85.326;2024-02-16T13:09:15;14.30;99.90
69204;DHT22;56317;27.658;85.326;2024-02-16T13:11:42;14.30;1.00
69204;DHT22;56317;27.658;85.326;2024-02-16T13:14:09;14.20;99.90
69204;DHT22;56317;27.658;85.326;2024-02-16T13:16:37;14.10;1.00
69204;DHT22;56317;27.658;85.326;2024-02-16T13:19:04;14.20;1.00
69204;DHT22;56317;27.658;85.326;2024-02-16T13:21:31;14.20;1.00
69204;DHT22;56317;27.658;85.326;2024-02-16T13:23:58;14.00;99.90
69204;DHT22;56317;27.658;85.326;2024-02-16T13:26:25;13.90;99.90
69204;DHT22;56317;27.658;85.326;2024-02-16T13:28:53;13.90;99.90
69204;DHT22;56317;27.658;85.326;2024-02-16T13:31:21;13.90;99.90
69204;DHT22;56317;27.658;85.326;2024-02-16T13:33:51;13.90;99.90
69204;DHT22;56317;27.658;85.326;2024-02-16T13:36:18;13.90;99.90
69204;DHT22;56317;27.658;85.326;2024-02-16T13:38:46;13.80;99.90
69204;DHT22;56317;27.658;85.326;2024-02-16T13:41:13;13.70;99.90
69204;DHT22;56317;27.658;85.326;2024-02-16T13:43:40;13.70;99.90
69204;DHT22;56317;27.658;85.326;2024-02-16T13:46:07;13.80;99.90
69204;DHT22;56317;27.658;85.326;2024-02-16T13:48:34;13.70;1.00
69204;DHT22;56317;27.658;85.326;2024-02-16T13:51:04;13.70;99.90
69204;DHT22;56317;27.658;85.326;2024-02-16T13:53:33;13.60;99.90
69204;DHT22;56317;27.658;85.326;2024-02-16T13:56:00;13.50;1.00
69204;DHT22;56317;27.658;85.326;2024-02-16T13:58:30;13.50;1.00
69204;DHT22;56317;27.658;85.326;2024-02-16T14:00:59;13.50;1.00
69204;DHT22;56317;27.658;85.326;2024-02-16T14:03:26;13.50;1.00
69204;DHT22;56317;27.658;85.326;2024-02-16T14:05:53;13.50;1.00
69204;DHT22;56317;27.658;85.326;2024-02-16T14:08:20;13.40;1.00
69204;DHT22;56317;27.658;85.326;2024-02-16T14:10:47;13.40;1.00
69204;DHT22;56317;27.658;85.326;2024-02-16T14:13:14;13.20;1.00
69204;DHT22;56317;27.658;85.326;2024-02-16T14:15:42;13.10;1.00
69204;DHT22;56317;27.658;85.326;2024-02-16T14:18:09;13.00;1.00
69204;DHT22;56317;27.658;85.326;2024-02-16T14:20:36;13.00;1.00
69204;DHT22;56317;27.658;85.326;2024-02-16T14:23:04;13.00;1.00
69204;DHT22;56317;27.658;85.326;2024-02-16T14:25:34;13.10;1.00
69204;DHT22;56317;27.658;85.326;2024-02-16T14:28:04;13.10;1.00
69204;DHT22;56317;27.658;85.326;2024-02-16T14:30:31;13.10;1.00
69204;DHT22;56317;27.658;85.326;2024-02-16T14:33:00;13.10;1.00
69204;DHT22;56317;27.658;85.326;2024-02-16T14:35:27;13.20;1.00
69204;DHT22;56317;27.658;85.326;2024-02-16T14:37:55;13.20;1.00
69204;DHT22;56317;27.658;85.326;2024-02-16T14:40:23;13.10;1.00
69204;DHT22;56317;27.658;85.326;2024-02-16T14:42:50;13.00;1.00
69204;DHT22;56317;27.658;85.326;2024-02-16T14:45:17;12.90;1.00
69204;DHT22;56317;27.658;85.326;2024-02-16T14:47:48;12.90;1.00
69204;DHT22;56317;27.658;85.326;2024-02-16T14:50:15;12.90;1.00
69204;DHT22;56317;27.658;85.326;2024-02-16T14:52:43;12.80;1.00
69204;DHT22;56317;27.658;85.326;2024-02-16T14:55:12;12.80;1.00
69204;DHT22;56317;27.658;85.326;2024-02-16T14:57:40;12.70;1.00
69204;DHT22;56317;27.658;85.326;2024-02-16T15:00:08;12.80;1.00
69204;DHT22;56317;27.658;85.326;2024-02-16T15:02:36;12.80;1.00
69204;DHT22;56317;27.658;85.326;2024-02-16T15:05:07;12.70;1.00
69204;DHT22;56317;27.658;85.326;2024-02-16T15:07:34;12.60;1.00
69204;DHT22;56317;27.658;85.326;2024-02-16T15:10:02;12.60;1.00
69204;DHT22;56317;27.658;85.326;2024-02-16T15:12:29;12.40;1.00
69204;DHT22;56317;27.658;85.326;2024-02-16T15:14:56;12.50;2.90
69204;DHT22;56317;27.658;85.326;2024-02-16T15:17:25;12.50;1.00
69204;DHT22;56317;27.658;85.326;2024-02-16T15:19:53;12.50;1.00
69204;DHT22;56317;27.658;85.326;2024-02-16T15:22:20;12.50;1.30
69204;DHT22;56317;27.658;85.326;2024-02-16T15:24:48;12.50;1.00
69204;DHT22;56317;27.658;85.326;2024-02-16T15:27:16;12.40;1.00
69204;DHT22;56317;27.658;85.326;2024-02-16T15:29:49;12.30;5.10
69204;DHT22;56317;27.658;85.326;2024-02-16T15:32:16;12.20;13.80